Time;durP1;ratioP1;P1;durP2;ratioP2;P2;SDS_P1;SDS_P2;PMS_P1;PMS_P2;Temp;Humidity;BMP_temperature;BMP_pressure;BME280_temperature;BME280_humidity;BME280_pressure;Samples;Min_cycle;Max_cycle;Signal;HPM_P1;HPM_P2
2021/08/09 00:01:45;;;;;;;5.57;3.00;;;;;;;;;;5094030;28;20455;-78
2021/08/09 00:04:12;;;;;;;5.43;2.93;;;;;;;;;;5094230;28;20432;-78
2021/08/09 00:06:40;;;;;;;7.13;3.67;;;;;;;;;;5093941;28;20444;-78
2021/08/09 00:09:07;;;;;;;8.87;3.10;;;;;;;;;;5093593;28;20439;-78
2021/08/09 00:11:34;;;;;;;4.83;2.90;;;;;;;;;;5093557;28;20489;-78
2021/08/09 00:14:03;;;;;;;6.40;3.17;;;;;;;;;;5094003;28;20436;-77
2021/08/09 00:16:30;;;;;;;5.97;3.03;;;;;;;;;;5093715;28;20489;-77
2021/08/09 00:18:57;;;;;;;6.00;4.40;;;;;;;;;;5093989;28;20530;-77
2021/08/09 00:21:24;;;;;;;7.80;3.60;;;;;;;;;;5094097;28;20518;-78
2021/08/09 00:23:52;;;;;;;4.77;3.03;;;;;;;;;;5093473;28;20478;-78
2021/08/09 00:26:21;;;;;;;4.33;3.30;;;;;;;;;;5093356;28;20450;-77
2021/08/09 00:28:48;;;;;;;4.57;3.30;;;;;;;;;;5094189;28;20612;-78
2021/08/09 00:31:17;;;;;;;5.17;3.43;;;;;;;;;;5093282;28;20440;-77
2021/08/09 00:33:44;;;;;;;3.50;3.00;;;;;;;;;;5093567;28;20473;-78
2021/08/09 00:36:11;;;;;;;6.43;3.20;;;;;;;;;;5093760;28;20483;-78
2021/08/09 00:38:38;;;;;;;5.63;3.67;;;;;;;;;;5093335;28;20446;-77
2021/08/09 00:41:06;;;;;;;8.13;3.50;;;;;;;;;;5093152;28;20445;-76
2021/08/09 00:43:33;;;;;;;4.30;3.47;;;;;;;;;;5093866;28;20809;-76
2021/08/09 00:46:04;;;;;;;6.77;3.10;;;;;;;;;;5093474;28;20446;-76
2021/08/09 00:48:34;;;;;;;5.60;4.03;;;;;;;;;;5093511;28;20525;-76
2021/08/09 00:51:01;;;;;;;6.53;3.70;;;;;;;;;;5094082;28;20806;-75
2021/08/09 00:53:29;;;;;;;4.10;3.60;;;;;;;;;;5093410;28;20444;-75
2021/08/09 00:55:56;;;;;;;5.20;4.70;;;;;;;;;;5092969;28;20471;-75
2021/08/09 00:58:24;;;;;;;5.00;4.37;;;;;;;;;;5093414;28;20445;-75
2021/08/09 01:00:51;;;;;;;6.93;3.30;;;;;;;;;;5093341;28;20441;-75
2021/08/09 01:03:18;;;;;;;8.20;3.73;;;;;;;;;;5093396;28;20783;-75
2021/08/09 01:05:49;;;;;;;7.30;4.03;;;;;;;;;;5093654;28;20442;-75
2021/08/09 01:08:23;;;;;;;4.43;3.10;;;;;;;;;;5093846;28;20451;-75
2021/08/09 01:10:54;;;;;;;6.90;3.50;;;;;;;;;;5093653;28;20989;-75
2021/08/09 01:13:24;;;;;;;5.10;3.00;;;;;;;;;;5094060;28;20755;-75
2021/08/09 01:15:53;;;;;;;3.47;3.17;;;;;;;;;;5093634;28;20533;-75
2021/08/09 01:18:21;;;;;;;4.70;3.90;;;;;;;;;;5092883;28;20432;-78
2021/08/09 01:20:51;;;;;;;5.37;3.20;;;;;;;;;;5092873;28;20448;-78
2021/08/09 01:23:46;;;;;;;5.10;3.33;;;;;;;;;;5092927;28;20463;-79
2021/08/09 01:26:17;;;;;;;5.13;3.27;;;;;;;;;;5093408;28;20433;-77
2021/08/09 01:28:46;;;;;;;5.27;3.50;;;;;;;;;;5092835;28;20424;-77
2021/08/09 01:31:14;;;;;;;5.63;3.93;;;;;;;;;;5093093;28;20446;-77
2021/08/09 01:33:42;;;;;;;6.53;4.00;;;;;;;;;;5093403;28;20468;-77
2021/08/09 01:36:10;;;;;;;5.57;3.13;;;;;;;;;;5093741;28;20498;-78
2021/08/09 01:38:37;;;;;;;3.60;3.23;;;;;;;;;;5093129;28;20806;-77
2021/08/09 01:41:05;;;;;;;4.40;3.27;;;;;;;;;;5092996;28;20443;-78
2021/08/09 01:43:32;;;;;;;6.30;3.63;;;;;;;;;;5092646;28;20965;-77
2021/08/09 01:46:01;;;;;;;5.77;3.00;;;;;;;;;;5092546;28;20444;-78
2021/08/09 01:48:29;;;;;;;11.43;3.30;;;;;;;;;;5092856;28;20436;-77
2021/08/09 01:50:56;;;;;;;4.60;3.30;;;;;;;;;;5095656;28;20435;-77
2021/08/09 01:53:24;;;;;;;3.37;3.03;;;;;;;;;;5096255;28;20500;-79
2021/08/09 01:55:51;;;;;;;4.03;3.33;;;;;;;;;;5096329;28;20443;-77
2021/08/09 01:58:18;;;;;;;4.40;3.60;;;;;;;;;;5096020;28;20440;-78
2021/08/09 02:00:45;;;;;;;5.63;3.40;;;;;;;;;;5096334;28;20467;-78
2021/08/09 02:03:14;;;;;;;3.93;3.20;;;;;;;;;;5095940;28;20442;-78
2021/08/09 02:05:41;;;;;;;4.60;3.63;;;;;;;;;;5096188;28;20447;-80
2021/08/09 02:08:11;;;;;;;3.90;3.30;;;;;;;;;;5095945;28;20876;-78
2021/08/09 02:10:38;;;;;;;5.20;3.73;;;;;;;;;;5095727;28;20442;-79
2021/08/09 02:13:08;;;;;;;5.63;3.43;;;;;;;;;;5096067;28;20446;-81
2021/08/09 02:15:39;;;;;;;3.87;3.37;;;;;;;;;;5095985;28;20443;-80
2021/08/09 02:18:09;;;;;;;3.90;3.30;;;;;;;;;;5096416;28;20428;-80
2021/08/09 02:20:39;;;;;;;5.60;4.07;;;;;;;;;;5095622;28;20442;-82
2021/08/09 02:23:08;;;;;;;11.90;4.20;;;;;;;;;;5095703;28;20473;-81
2021/08/09 02:25:39;;;;;;;4.43;3.33;;;;;;;;;;5096266;28;20515;-79
2021/08/09 02:28:08;;;;;;;4.97;3.50;;;;;;;;;;5096206;28;20442;-80
2021/08/09 02:30:37;;;;;;;5.17;3.53;;;;;;;;;;5095747;28;20444;-79
2021/08/09 02:33:05;;;;;;;7.33;4.17;;;;;;;;;;5095386;28;20447;-80
2021/08/09 02:35:33;;;;;;;4.63;3.63;;;;;;;;;;5095455;28;20950;-80
2021/08/09 02:38:02;;;;;;;5.97;4.30;;;;;;;;;;5095258;28;20472;-80
2021/08/09 02:40:29;;;;;;;6.07;3.70;;;;;;;;;;5095244;28;20450;-78
2021/08/09 02:42:57;;;;;;;5.10;4.10;;;;;;;;;;5095241;28;20444;-80
2021/08/09 02:45:25;;;;;;;5.80;3.47;;;;;;;;;;5095839;28;20520;-80
2021/08/09 02:47:52;;;;;;;5.67;3.67;;;;;;;;;;5095397;28;20441;-80
2021/08/09 02:50:20;;;;;;;10.60;3.70;;;;;;;;;;5095512;28;20450;-80
2021/08/09 02:52:47;;;;;;;3.70;3.37;;;;;;;;;;5094986;28;20448;-79
2021/08/09 02:55:18;;;;;;;4.50;3.50;;;;;;;;;;5095804;28;20451;-79
2021/08/09 02:57:46;;;;;;;6.90;3.50;;;;;;;;;;5095631;28;20564;-79
2021/08/09 03:00:13;;;;;;;9.80;3.53;;;;;;;;;;5094841;28;20458;-78
2021/08/09 03:02:43;;;;;;;7.07;3.80;;;;;;;;;;5095108;28;20441;-78
2021/08/09 03:05:12;;;;;;;10.17;4.43;;;;;;;;;;5095048;28;20530;-79
2021/08/09 03:07:39;;;;;;;6.43;3.87;;;;;;;;;;5095756;28;20443;-79
2021/08/09 03:10:07;;;;;;;5.30;3.70;;;;;;;;;;5095788;28;20539;-78
2021/08/09 03:12:36;;;;;;;5.23;3.50;;;;;;;;;;5094978;28;20461;-79
2021/08/09 03:15:03;;;;;;;6.90;3.37;;;;;;;;;;5094854;28;20440;-81
2021/08/09 03:17:30;;;;;;;5.60;3.70;;;;;;;;;;5094413;28;20471;-79
2021/08/09 03:19:58;;;;;;;3.83;3.53;;;;;;;;;;5094806;28;20440;-80
2021/08/09 03:22:25;;;;;;;5.13;3.90;;;;;;;;;;5094743;28;20531;-79
2021/08/09 03:24:52;;;;;;;5.20;3.13;;;;;;;;;;5094894;28;20563;-80
2021/08/09 03:27:19;;;;;;;3.70;3.40;;;;;;;;;;5094299;28;20534;-80
2021/08/09 03:29:48;;;;;;;4.53;3.50;;;;;;;;;;5094666;28;20443;-79
2021/08/09 03:32:15;;;;;;;5.77;4.43;;;;;;;;;;5094672;28;20432;-79
2021/08/09 03:34:42;;;;;;;4.97;3.20;;;;;;;;;;5094190;28;20531;-79
2021/08/09 03:37:09;;;;;;;6.07;3.90;;;;;;;;;;5094414;28;20825;-79
2021/08/09 03:39:37;;;;;;;4.33;3.50;;;;;;;;;;5094430;28;20480;-80
2021/08/09 03:42:04;;;;;;;6.90;4.13;;;;;;;;;;5094069;28;20445;-80
2021/08/09 03:44:31;;;;;;;4.43;3.60;;;;;;;;;;5094356;28;20446;-79
2021/08/09 03:47:00;;;;;;;5.77;3.87;;;;;;;;;;5094095;28;20456;-80
2021/08/09 03:49:27;;;;;;;4.33;3.40;;;;;;;;;;5094265;28;20442;-80
2021/08/09 03:51:54;;;;;;;7.43;3.80;;;;;;;;;;5094619;28;20436;-78
2021/08/09 03:54:21;;;;;;;5.30;3.90;;;;;;;;;;5093886;28;20491;-78
2021/08/09 03:56:48;;;;;;;5.97;3.83;;;;;;;;;;5094079;28;20477;-78
2021/08/09 03:59:16;;;;;;;4.27;3.90;;;;;;;;;;5094262;28;20870;-79
2021/08/09 04:01:45;;;;;;;6.93;4.17;;;;;;;;;;5093774;28;20487;-79
2021/08/09 04:04:13;;;;;;;4.00;3.50;;;;;;;;;;5094008;28;20448;-78
2021/08/09 04:06:41;;;;;;;6.00;3.60;;;;;;;;;;5093928;28;20440;-79
2021/08/09 04:09:08;;;;;;;8.87;4.30;;;;;;;;;;5093664;28;21010;-73
2021/08/09 04:11:35;;;;;;;8.43;3.57;;;;;;;;;;5093237;28;20889;-79
2021/08/09 04:14:02;;;;;;;5.50;3.50;;;;;;;;;;5093575;28;20534;-81
2021/08/09 04:16:30;;;;;;;6.40;4.20;;;;;;;;;;5094303;28;20524;-78
2021/08/09 04:18:57;;;;;;;7.00;3.97;;;;;;;;;;5093999;28;20535;-80
2021/08/09 04:21:26;;;;;;;8.80;4.63;;;;;;;;;;5094355;28;20440;-82
2021/08/09 04:23:53;;;;;;;6.00;3.90;;;;;;;;;;5094757;28;20562;-79
2021/08/09 04:26:20;;;;;;;6.70;3.87;;;;;;;;;;5093614;28;20450;-78
2021/08/09 04:28:48;;;;;;;5.03;3.47;;;;;;;;;;5098650;28;20452;-78
2021/08/09 04:31:15;;;;;;;6.77;3.83;;;;;;;;;;5105655;28;20444;-79
2021/08/09 04:33:43;;;;;;;3.80;3.50;;;;;;;;;;5113858;28;20786;-80
2021/08/09 04:36:10;;;;;;;5.57;4.10;;;;;;;;;;5113960;28;20477;-78
2021/08/09 04:38:39;;;;;;;7.40;3.63;;;;;;;;;;5113546;28;20558;-78
2021/08/09 04:41:07;;;;;;;5.93;3.80;;;;;;;;;;5113906;28;20518;-78
2021/08/09 04:43:36;;;;;;;8.07;4.20;;;;;;;;;;5114069;28;21025;-78
2021/08/09 04:46:03;;;;;;;5.23;3.70;;;;;;;;;;5114221;28;20491;-78
2021/08/09 04:48:31;;;;;;;5.60;4.20;;;;;;;;;;5113827;28;20565;-78
2021/08/09 04:50:58;;;;;;;8.40;4.17;;;;;;;;;;5113824;28;20471;-78
2021/08/09 04:53:25;;;;;;;6.90;4.00;;;;;;;;;;5113661;28;20449;-79
2021/08/09 04:55:54;;;;;;;6.70;4.00;;;;;;;;;;5114620;28;20440;-79
2021/08/09 04:58:21;;;;;;;6.70;4.33;;;;;;;;;;5108097;28;20484;-79
2021/08/09 05:00:48;;;;;;;7.53;3.93;;;;;;;;;;5093179;28;20428;-78
2021/08/09 05:03:15;;;;;;;8.57;4.53;;;;;;;;;;5101328;28;20948;-78
2021/08/09 05:05:46;;;;;;;6.13;4.00;;;;;;;;;;5095135;28;20969;-80
2021/08/09 05:08:13;;;;;;;8.13;4.27;;;;;;;;;;5106927;28;20524;-78
2021/08/09 05:10:40;;;;;;;7.80;3.90;;;;;;;;;;5113803;28;20435;-78
2021/08/09 05:13:09;;;;;;;7.40;4.27;;;;;;;;;;5113256;28;20489;-77
2021/08/09 05:15:37;;;;;;;8.87;3.97;;;;;;;;;;5113283;28;20522;-76
2021/08/09 05:18:05;;;;;;;6.90;4.43;;;;;;;;;;5113593;28;20470;-77
2021/08/09 05:20:34;;;;;;;7.20;3.93;;;;;;;;;;5113148;28;20508;-78
2021/08/09 05:23:01;;;;;;;7.03;3.63;;;;;;;;;;5112974;28;20463;-77
2021/08/09 05:25:30;;;;;;;7.10;3.50;;;;;;;;;;5117119;28;20455;-78
2021/08/09 05:27:57;;;;;;;11.23;3.80;;;;;;;;;;5117101;28;20456;-79
2021/08/09 05:30:26;;;;;;;10.43;4.00;;;;;;;;;;5117367;28;20530;-78
2021/08/09 05:32:53;;;;;;;8.27;4.20;;;;;;;;;;5104556;28;20446;-77
2021/08/09 05:35:20;;;;;;;7.93;3.93;;;;;;;;;;5096493;28;20882;-68
2021/08/09 05:37:47;;;;;;;8.87;3.57;;;;;;;;;;5096739;28;20837;-83
2021/08/09 05:40:16;;;;;;;5.57;4.30;;;;;;;;;;5096967;28;20438;-84
2021/08/09 05:42:48;;;;;;;4.83;3.23;;;;;;;;;;5097065;28;20431;-83
2021/08/09 05:45:15;;;;;;;5.40;3.63;;;;;;;;;;5098024;28;20430;-83
2021/08/09 05:47:50;;;;;;;5.27;4.20;;;;;;;;;;5097256;28;20450;-82
2021/08/09 05:50:17;;;;;;;7.67;3.53;;;;;;;;;;5097360;28;20439;-84
2021/08/09 05:52:44;;;;;;;7.27;4.13;;;;;;;;;;5096997;28;20446;-83
2021/08/09 05:55:12;;;;;;;4.70;4.00;;;;;;;;;;5096552;28;20946;-83
2021/08/09 05:57:39;;;;;;;6.40;4.00;;;;;;;;;;5096954;28;20476;-83
2021/08/09 06:00:07;;;;;;;7.13;3.37;;;;;;;;;;5096962;28;20440;-84
2021/08/09 06:02:40;;;;;;;6.47;3.50;;;;;;;;;;5096845;28;20535;-83
2021/08/09 06:05:10;;;;;;;6.73;3.63;;;;;;;;;;5096668;28;20985;-84
2021/08/09 06:07:38;;;;;;;11.20;4.20;;;;;;;;;;5097743;28;20450;-84
2021/08/09 06:10:05;;;;;;;6.07;3.83;;;;;;;;;;5098726;28;20436;-82
2021/08/09 06:12:33;;;;;;;4.73;3.40;;;;;;;;;;5097983;28;20440;-83
2021/08/09 06:15:01;;;;;;;7.23;3.50;;;;;;;;;;5098992;28;20786;-84
2021/08/09 06:17:28;;;;;;;5.67;3.23;;;;;;;;;;5096608;28;20486;-84
2021/08/09 06:19:55;;;;;;;5.40;3.70;;;;;;;;;;5096497;28;20530;-83
2021/08/09 06:22:23;;;;;;;6.43;3.10;;;;;;;;;;5095929;28;20448;-84
2021/08/09 06:24:51;;;;;;;3.40;3.10;;;;;;;;;;5096358;28;20473;-84
2021/08/09 06:27:18;;;;;;;5.20;3.47;;;;;;;;;;5096002;28;20951;-85
2021/08/09 06:29:45;;;;;;;6.13;3.13;;;;;;;;;;5096511;28;20436;-85
2021/08/09 06:32:12;;;;;;;5.67;3.40;;;;;;;;;;5095963;28;20531;-85
2021/08/09 06:34:39;;;;;;;6.17;3.17;;;;;;;;;;5095820;28;20446;-82
2021/08/09 06:37:07;;;;;;;5.27;3.60;;;;;;;;;;5096021;28;20442;-84
2021/08/09 06:39:35;;;;;;;4.33;3.10;;;;;;;;;;5095947;28;20444;-86
2021/08/09 06:42:04;;;;;;;3.40;3.10;;;;;;;;;;5096357;28;20795;-84
2021/08/09 06:44:32;;;;;;;8.37;3.23;;;;;;;;;;5096957;28;20569;-84
2021/08/09 06:46:59;;;;;;;5.97;2.80;;;;;;;;;;5095989;28;20437;-85
2021/08/09 06:49:26;;;;;;;4.40;2.70;;;;;;;;;;5095388;28;20803;-85
2021/08/09 06:51:54;;;;;;;7.93;3.33;;;;;;;;;;5096413;28;20929;-84
2021/08/09 06:54:23;;;;;;;10.17;3.33;;;;;;;;;;5095627;28;20463;-83
2021/08/09 06:56:52;;;;;;;3.67;3.20;;;;;;;;;;5096203;28;20443;-83
2021/08/09 06:59:20;;;;;;;5.07;3.40;;;;;;;;;;5095670;28;20507;-83
2021/08/09 07:01:48;;;;;;;7.03;3.37;;;;;;;;;;5095189;28;20526;-85
2021/08/09 07:04:15;;;;;;;6.37;3.40;;;;;;;;;;5095406;28;20440;-84
2021/08/09 07:06:44;;;;;;;5.13;3.97;;;;;;;;;;5096183;28;20466;-84
2021/08/09 07:09:11;;;;;;;7.53;2.80;;;;;;;;;;5097826;28;20451;-84
2021/08/09 07:11:39;;;;;;;8.23;3.50;;;;;;;;;;5095514;28;20448;-84
2021/08/09 07:14:07;;;;;;;7.50;3.40;;;;;;;;;;5096013;28;20837;-84
2021/08/09 07:16:34;;;;;;;4.70;3.27;;;;;;;;;;5094727;28;20519;-83
2021/08/09 07:19:02;;;;;;;5.53;3.47;;;;;;;;;;5095509;28;20530;-84
2021/08/09 07:21:29;;;;;;;5.80;3.10;;;;;;;;;;5094935;28;20448;-84
2021/08/09 07:23:56;;;;;;;6.80;3.60;;;;;;;;;;5094862;28;20469;-85
2021/08/09 07:26:23;;;;;;;7.27;3.10;;;;;;;;;;5094594;28;20531;-80
2021/08/09 07:28:50;;;;;;;4.73;3.20;;;;;;;;;;5094625;28;20475;-86
2021/08/09 07:31:19;;;;;;;5.20;3.53;;;;;;;;;;5095595;28;20444;-83
2021/08/09 07:33:47;;;;;;;6.97;3.90;;;;;;;;;;5094313;28;20440;-84
2021/08/09 07:36:14;;;;;;;4.17;2.83;;;;;;;;;;5094704;28;20444;-83
2021/08/09 07:38:41;;;;;;;13.30;3.50;;;;;;;;;;5094379;28;21005;-85
2021/08/09 07:41:09;;;;;;;6.23;4.07;;;;;;;;;;5094532;28;20491;-84
2021/08/09 07:43:36;;;;;;;5.73;3.67;;;;;;;;;;5094601;28;20451;-84
2021/08/09 07:46:03;;;;;;;5.10;3.77;;;;;;;;;;5094373;28;20792;-85
2021/08/09 07:48:32;;;;;;;5.10;3.13;;;;;;;;;;5093129;28;20914;-85
2021/08/09 07:50:59;;;;;;;7.20;3.93;;;;;;;;;;5094259;28;20451;-85
2021/08/09 07:53:26;;;;;;;6.83;3.60;;;;;;;;;;5094670;28;20443;-85
2021/08/09 07:55:53;;;;;;;5.63;3.30;;;;;;;;;;5094651;28;20442;-85
2021/08/09 07:58:21;;;;;;;5.13;3.30;;;;;;;;;;5094050;28;20510;-84
2021/08/09 08:00:48;;;;;;;5.30;3.40;;;;;;;;;;5094745;28;20867;-83
2021/08/09 08:03:15;;;;;;;7.50;3.73;;;;;;;;;;5093851;28;20944;-86
2021/08/09 08:05:44;;;;;;;7.13;3.30;;;;;;;;;;5094302;28;20818;-84
2021/08/09 08:08:11;;;;;;;5.60;3.60;;;;;;;;;;5093817;28;20443;-84
2021/08/09 08:10:38;;;;;;;6.67;3.50;;;;;;;;;;5093845;28;20503;-86
2021/08/09 08:13:05;;;;;;;5.80;4.00;;;;;;;;;;5093791;28;20526;-85
2021/08/09 08:15:33;;;;;;;5.77;3.70;;;;;;;;;;5094119;28;20542;-84
2021/08/09 08:18:00;;;;;;;5.67;4.00;;;;;;;;;;5093842;28;20503;-84
2021/08/09 08:20:27;;;;;;;7.73;3.73;;;;;;;;;;5093675;28;20472;-85
2021/08/09 08:22:58;;;;;;;4.57;4.17;;;;;;;;;;5093965;28;20561;-84
2021/08/09 08:25:25;;;;;;;5.60;3.87;;;;;;;;;;5094886;28;20435;-86
2021/08/09 08:27:52;;;;;;;10.33;4.00;;;;;;;;;;5094142;28;20439;-85
2021/08/09 08:30:20;;;;;;;6.47;4.27;;;;;;;;;;5094855;28;20531;-86
2021/08/09 08:32:47;;;;;;;3.97;3.57;;;;;;;;;;5094782;28;20454;-85
2021/08/09 08:35:14;;;;;;;9.40;4.13;;;;;;;;;;5093870;28;20443;-86
2021/08/09 08:37:41;;;;;;;4.03;3.63;;;;;;;;;;5094217;28;20440;-86
2021/08/09 08:40:10;;;;;;;6.47;3.97;;;;;;;;;;5093926;28;20491;-85
2021/08/09 08:42:39;;;;;;;7.60;4.30;;;;;;;;;;5094276;28;20463;-85
2021/08/09 08:45:07;;;;;;;3.67;3.07;;;;;;;;;;5094620;28;20467;-85
2021/08/09 08:47:35;;;;;;;5.30;3.70;;;;;;;;;;5093686;28;20436;-86
2021/08/09 08:50:03;;;;;;;7.47;3.93;;;;;;;;;;5093289;28;20454;-87
2021/08/09 08:52:31;;;;;;;5.00;3.60;;;;;;;;;;5093805;28;20444;-85
2021/08/09 08:54:58;;;;;;;4.23;3.10;;;;;;;;;;5094679;28;20443;-87
2021/08/09 08:57:27;;;;;;;6.10;3.07;;;;;;;;;;5093772;28;20447;-86
2021/08/09 08:59:54;;;;;;;9.27;4.17;;;;;;;;;;5097288;28;20478;-87
2021/08/09 09:02:32;;;;;;;4.77;3.50;;;;;;;;;;5098649;28;20441;-85
2021/08/09 09:05:06;;;;;;;5.63;3.40;;;;;;;;;;5098201;28;20447;-86
2021/08/09 09:07:33;;;;;;;5.43;3.40;;;;;;;;;;5097844;28;20428;-86
2021/08/09 09:10:14;;;;;;;3.80;3.40;;;;;;;;;;5098023;28;20454;-84
2021/08/09 09:12:42;;;;;;;4.33;3.33;;;;;;;;;;5097920;28;20455;-86
2021/08/09 09:15:10;;;;;;;6.37;3.30;;;;;;;;;;5097140;28;20955;-86
2021/08/09 09:17:38;;;;;;;6.70;3.47;;;;;;;;;;5097525;28;20850;-85
2021/08/09 09:20:22;;;;;;;6.33;2.97;;;;;;;;;;5098110;28;20655;-87
2021/08/09 09:22:49;;;;;;;5.27;3.23;;;;;;;;;;5097438;28;20486;-85
2021/08/09 09:25:17;;;;;;;4.20;3.37;;;;;;;;;;5096852;28;20460;-85
2021/08/09 09:27:46;;;;;;;4.87;3.67;;;;;;;;;;5097422;28;20443;-86
2021/08/09 09:30:29;;;;;;;5.27;3.07;;;;;;;;;;5097293;28;20792;-85
2021/08/09 09:33:00;;;;;;;4.77;3.30;;;;;;;;;;5097242;28;20492;-78
2021/08/09 09:35:28;;;;;;;4.40;3.03;;;;;;;;;;5097167;28;20440;-86
2021/08/09 09:37:55;;;;;;;5.93;3.23;;;;;;;;;;5097238;28;20479;-86
2021/08/09 09:40:23;;;;;;;3.40;2.80;;;;;;;;;;5097485;28;20812;-87
2021/08/09 09:42:53;;;;;;;3.63;2.70;;;;;;;;;;5097218;28;20451;-86
2021/08/09 09:45:22;;;;;;;7.80;3.00;;;;;;;;;;5097416;28;20438;-84
2021/08/09 09:48:02;;;;;;;4.47;2.60;;;;;;;;;;5096479;28;20976;-85
2021/08/09 09:50:30;;;;;;;4.20;2.63;;;;;;;;;;5097166;28;20912;-84
2021/08/09 09:52:57;;;;;;;7.03;3.40;;;;;;;;;;5096600;28;20535;-84
2021/08/09 09:55:24;;;;;;;5.87;2.67;;;;;;;;;;5097034;28;20813;-84
2021/08/09 09:57:53;;;;;;;3.13;2.50;;;;;;;;;;5096620;28;20450;-86
2021/08/09 10:00:20;;;;;;;2.93;2.03;;;;;;;;;;5096322;28;20996;-86
2021/08/09 10:02:48;;;;;;;7.33;2.80;;;;;;;;;;5097224;28;20449;-85
2021/08/09 10:05:16;;;;;;;7.80;2.80;;;;;;;;;;5097050;28;20515;-85
2021/08/09 10:07:44;;;;;;;4.10;2.80;;;;;;;;;;5097132;28;20446;-84
2021/08/09 10:10:11;;;;;;;4.87;2.77;;;;;;;;;;5095531;28;20470;-83
2021/08/09 10:12:39;;;;;;;3.20;2.90;;;;;;;;;;5097255;28;20807;-83
2021/08/09 10:15:09;;;;;;;5.77;2.40;;;;;;;;;;5097078;28;20944;-83
2021/08/09 10:17:37;;;;;;;3.10;2.20;;;;;;;;;;5096016;28;20446;-84
2021/08/09 10:20:06;;;;;;;3.00;1.93;;;;;;;;;;5097419;28;20569;-82
2021/08/09 10:22:34;;;;;;;2.97;2.20;;;;;;;;;;5095559;28;20443;-80
2021/08/09 10:25:02;;;;;;;4.63;3.23;;;;;;;;;;5097015;28;20914;-82
2021/08/09 10:27:48;;;;;;;4.33;2.13;;;;;;;;;;5096178;28;20513;-83
2021/08/09 10:30:17;;;;;;;3.40;1.90;;;;;;;;;;5096547;28;20442;-82
2021/08/09 10:32:46;;;;;;;5.07;1.93;;;;;;;;;;5095896;28;20435;-83
2021/08/09 10:35:32;;;;;;;3.23;2.00;;;;;;;;;;5095731;28;20446;-82
2021/08/09 10:38:13;;;;;;;3.47;2.47;;;;;;;;;;5096936;28;20446;-79
2021/08/09 10:40:40;;;;;;;3.83;2.00;;;;;;;;;;5096209;28;20562;-81
2021/08/09 10:43:07;;;;;;;3.63;2.43;;;;;;;;;;5097042;28;20449;-81
2021/08/09 10:45:43;;;;;;;5.10;2.50;;;;;;;;;;5095604;28;20445;-82
2021/08/09 10:48:11;;;;;;;3.57;2.30;;;;;;;;;;5096010;28;20438;-81
2021/08/09 10:50:54;;;;;;;4.00;2.17;;;;;;;;;;5095408;28;20451;-81
2021/08/09 10:53:39;;;;;;;3.00;2.10;;;;;;;;;;5095429;28;20799;-80
2021/08/09 10:56:06;;;;;;;3.73;2.40;;;;;;;;;;5094977;28;20520;-80
2021/08/09 10:58:53;;;;;;;3.67;2.60;;;;;;;;;;5095959;28;20529;-79
2021/08/09 11:01:22;;;;;;;4.07;2.47;;;;;;;;;;5095615;28;20446;-80
2021/08/09 11:04:11;;;;;;;7.03;2.80;;;;;;;;;;5095208;28;20449;-83
2021/08/09 11:06:39;;;;;;;4.00;2.57;;;;;;;;;;5095165;28;20535;-84
2021/08/09 11:09:21;;;;;;;2.43;2.23;;;;;;;;;;5095326;28;20533;-83
2021/08/09 11:12:07;;;;;;;3.03;2.60;;;;;;;;;;5095575;28;20931;-81
2021/08/09 11:14:54;;;;;;;3.27;2.00;;;;;;;;;;5096474;28;20634;-82
2021/08/09 11:17:22;;;;;;;5.77;2.80;;;;;;;;;;5094873;28;20535;-82
2021/08/09 11:19:49;;;;;;;3.40;2.40;;;;;;;;;;5094952;28;20488;-76
2021/08/09 11:22:18;;;;;;;4.07;1.90;;;;;;;;;;5095246;28;20893;-79
2021/08/09 11:24:46;;;;;;;3.83;2.53;;;;;;;;;;5094567;28;20588;-81
2021/08/09 11:27:13;;;;;;;4.07;2.47;;;;;;;;;;5095410;28;20531;-80
2021/08/09 11:29:53;;;;;;;6.47;2.70;;;;;;;;;;5095032;28;20450;-80
2021/08/09 11:32:35;;;;;;;9.70;2.20;;;;;;;;;;5094424;28;20445;-81
2021/08/09 11:35:03;;;;;;;3.50;2.50;;;;;;;;;;5096153;28;20861;-81
2021/08/09 11:37:32;;;;;;;3.13;2.10;;;;;;;;;;5094610;28;20535;-73
2021/08/09 11:39:59;;;;;;;3.77;2.10;;;;;;;;;;5094821;28;20484;-84
2021/08/09 11:42:26;;;;;;;2.80;2.17;;;;;;;;;;5094792;28;20457;-80
2021/08/09 11:44:53;;;;;;;3.73;2.90;;;;;;;;;;5094354;28;20443;-80
2021/08/09 11:47:24;;;;;;;4.50;2.23;;;;;;;;;;5095463;28;20450;-81
2021/08/09 11:49:56;;;;;;;3.10;2.40;;;;;;;;;;5094912;28;20810;-80
2021/08/09 11:52:25;;;;;;;2.80;2.50;;;;;;;;;;5094453;28;20518;-80
2021/08/09 11:54:52;;;;;;;3.97;2.27;;;;;;;;;;5093719;28;20453;-78
2021/08/09 11:57:19;;;;;;;8.30;3.33;;;;;;;;;;5094681;28;20445;-80
2021/08/09 11:59:52;;;;;;;5.40;2.50;;;;;;;;;;5094034;28;20481;-80
2021/08/09 12:02:19;;;;;;;2.73;2.10;;;;;;;;;;5094595;28;20437;-79
2021/08/09 12:04:46;;;;;;;4.67;2.77;;;;;;;;;;5094141;28;20940;-79
2021/08/09 12:07:20;;;;;;;2.63;1.97;;;;;;;;;;5094890;28;20793;-81
2021/08/09 12:09:49;;;;;;;7.27;2.50;;;;;;;;;;5094266;28;20457;-78
2021/08/09 12:12:17;;;;;;;4.93;2.40;;;;;;;;;;5093957;28;20450;-80
2021/08/09 12:14:45;;;;;;;5.87;2.50;;;;;;;;;;5093971;28;20453;-78
2021/08/09 12:17:15;;;;;;;4.97;2.10;;;;;;;;;;5093892;28;20517;-78
2021/08/09 12:19:43;;;;;;;5.80;2.77;;;;;;;;;;5093734;28;20482;-78
2021/08/09 12:22:12;;;;;;;5.17;2.53;;;;;;;;;;5094276;28;20443;-80
2021/08/09 12:24:39;;;;;;;4.93;2.10;;;;;;;;;;5094049;28;21038;-80
2021/08/09 12:27:19;;;;;;;4.43;2.03;;;;;;;;;;5094237;28;20515;-79
2021/08/09 12:30:02;;;;;;;4.70;2.50;;;;;;;;;;5094769;28;20428;-79
2021/08/09 12:32:30;;;;;;;7.33;2.70;;;;;;;;;;5093287;28;20450;-79
2021/08/09 12:34:57;;;;;;;3.53;1.83;;;;;;;;;;5092941;28;20533;-75
2021/08/09 12:37:24;;;;;;;3.83;2.20;;;;;;;;;;5093315;28;20958;-79
2021/08/09 12:40:12;;;;;;;3.53;2.00;;;;;;;;;;5093655;28;20478;-78
2021/08/09 12:42:41;;;;;;;4.37;1.83;;;;;;;;;;5089054;28;20642;-76
2021/08/09 12:45:09;;;;;;;5.37;2.37;;;;;;;;;;5093857;28;20455;-79
2021/08/09 12:47:36;;;;;;;2.43;2.00;;;;;;;;;;5093705;28;20496;-79
2021/08/09 12:50:03;;;;;;;6.53;2.57;;;;;;;;;;5093393;28;20451;-81
2021/08/09 12:52:31;;;;;;;3.97;2.30;;;;;;;;;;5093342;28;20441;-82
2021/08/09 12:54:58;;;;;;;3.97;2.07;;;;;;;;;;5093007;28;20534;-71
2021/08/09 12:57:25;;;;;;;4.70;2.50;;;;;;;;;;5093717;28;20446;-68
2021/08/09 12:59:54;;;;;;;8.97;1.90;;;;;;;;;;5092988;28;20475;-78
2021/08/09 13:02:21;;;;;;;3.63;2.30;;;;;;;;;;5092950;28;20440;-79
2021/08/09 13:04:50;;;;;;;3.80;2.63;;;;;;;;;;5092884;28;20440;-78
2021/08/09 13:07:17;;;;;;;3.90;2.57;;;;;;;;;;5092864;28;20452;-79
2021/08/09 13:09:44;;;;;;;6.50;2.90;;;;;;;;;;5093655;28;20450;-80
2021/08/09 13:12:12;;;;;;;4.70;2.37;;;;;;;;;;5093908;28;20784;-77
2021/08/09 13:14:39;;;;;;;7.83;2.50;;;;;;;;;;5093842;28;20454;-79
2021/08/09 13:17:07;;;;;;;7.27;2.00;;;;;;;;;;5093232;28;20842;-81
2021/08/09 13:19:35;;;;;;;3.20;2.20;;;;;;;;;;5103675;28;20953;-78
2021/08/09 13:22:02;;;;;;;4.53;2.70;;;;;;;;;;5093248;28;20518;-78
2021/08/09 13:24:36;;;;;;;5.23;2.07;;;;;;;;;;5104949;28;20475;-80
2021/08/09 13:27:04;;;;;;;6.90;2.43;;;;;;;;;;5113647;28;20514;-78
2021/08/09 13:29:33;;;;;;;2.50;1.77;;;;;;;;;;5113929;28;20778;-80
2021/08/09 13:32:00;;;;;;;2.87;2.00;;;;;;;;;;5113136;28;20754;-79
2021/08/09 13:34:29;;;;;;;4.70;2.63;;;;;;;;;;5113173;28;20788;-79
2021/08/09 13:36:56;;;;;;;5.60;2.27;;;;;;;;;;5113285;28;20445;-79
2021/08/09 13:39:23;;;;;;;2.50;1.60;;;;;;;;;;5112776;28;20442;-78
2021/08/09 13:41:50;;;;;;;3.40;1.77;;;;;;;;;;5113990;28;20473;-80
2021/08/09 13:44:17;;;;;;;3.43;1.70;;;;;;;;;;5113369;28;20442;-79
2021/08/09 13:46:45;;;;;;;4.40;1.53;;;;;;;;;;5116465;28;20436;-82
2021/08/09 13:49:12;;;;;;;2.60;1.63;;;;;;;;;;5097984;28;20442;-81
2021/08/09 13:51:41;;;;;;;4.00;1.83;;;;;;;;;;5096414;28;20457;-76
2021/08/09 13:54:08;;;;;;;5.03;1.77;;;;;;;;;;5096383;28;20454;-78
2021/08/09 13:56:35;;;;;;;2.87;1.60;;;;;;;;;;5096150;28;20945;-76
2021/08/09 13:59:03;;;;;;;4.93;2.07;;;;;;;;;;5096545;28;20447;-76
2021/08/09 14:01:31;;;;;;;4.03;2.00;;;;;;;;;;5096186;28;20486;-78
2021/08/09 14:03:58;;;;;;;3.10;2.13;;;;;;;;;;5097003;28;20532;-74
2021/08/09 14:06:25;;;;;;;3.23;1.70;;;;;;;;;;5097267;28;20450;-77
2021/08/09 14:08:53;;;;;;;3.17;1.90;;;;;;;;;;5095843;28;20435;-77
2021/08/09 14:11:21;;;;;;;3.33;2.00;;;;;;;;;;5096163;28;20447;-78
2021/08/09 14:13:48;;;;;;;2.93;1.80;;;;;;;;;;5095811;28;20940;-77
2021/08/09 14:16:15;;;;;;;3.00;1.90;;;;;;;;;;5095864;28;20960;-76
2021/08/09 14:18:42;;;;;;;3.27;1.83;;;;;;;;;;5095890;28;20451;-76
2021/08/09 14:21:13;;;;;;;5.73;2.30;;;;;;;;;;5096359;28;20471;-75
2021/08/09 14:23:40;;;;;;;1.90;1.60;;;;;;;;;;5096028;28;20582;-76
2021/08/09 14:26:08;;;;;;;5.97;2.53;;;;;;;;;;5096446;28;20449;-71
2021/08/09 14:28:36;;;;;;;3.63;2.23;;;;;;;;;;5095804;28;20440;-76
2021/08/09 14:31:03;;;;;;;4.50;2.17;;;;;;;;;;5095716;28;20453;-76
2021/08/09 14:33:30;;;;;;;5.00;2.07;;;;;;;;;;5095311;28;20455;-76
2021/08/09 14:35:57;;;;;;;3.13;1.80;;;;;;;;;;5095604;28;20448;-77
2021/08/09 14:38:25;;;;;;;3.63;1.97;;;;;;;;;;5096109;28;20445;-77
2021/08/09 14:40:52;;;;;;;2.67;1.80;;;;;;;;;;5095217;28;20488;-76
2021/08/09 14:43:20;;;;;;;3.87;1.80;;;;;;;;;;5095548;28;20949;-77
2021/08/09 14:45:48;;;;;;;3.87;1.87;;;;;;;;;;5095419;28;20441;-77
2021/08/09 14:48:15;;;;;;;7.20;2.40;;;;;;;;;;5095288;28;20525;-76
2021/08/09 14:50:42;;;;;;;3.47;2.40;;;;;;;;;;5094995;28;20456;-76
2021/08/09 14:53:09;;;;;;;4.27;2.03;;;;;;;;;;5095911;28;20440;-75